Time;durP1;ratioP1;P1;durP2;ratioP2;P2;SDS_P1;SDS_P2;PMS_P1;PMS_P2;Temp;Humidity;BMP_temperature;BMP_pressure;BME280_temperature;BME280_humidity;BME280_pressure;Samples;Min_cycle;Max_cycle;Signal;HPM_P1;HPM_P2
2023/05/05 00:01:11;;;;;;;4.18;3.80;;;20.20;51.30;;;;;;5010309;28;20522;-49
2023/05/05 00:03:38;;;;;;;4.63;4.15;;;20.30;50.80;;;;;;5008094;28;20050;-51
2023/05/05 00:06:05;;;;;;;4.45;4.05;;;20.30;50.50;;;;;;4990985;28;20499;-49
2023/05/05 00:08:34;;;;;;;5.57;4.35;;;20.30;50.80;;;;;;5000866;28;20526;-49
2023/05/05 00:11:03;;;;;;;5.00;4.50;;;20.30;50.80;;;;;;5002987;28;20150;-50
2023/05/05 00:13:32;;;;;;;6.00;4.60;;;20.30;50.50;;;;;;4990909;28;20531;-51
2023/05/05 00:16:01;;;;;;;7.38;4.57;;;20.30;50.40;;;;;;4998384;28;20046;-52
2023/05/05 00:18:33;;;;;;;5.32;4.47;;;20.30;50.40;;;;;;5010788;28;20046;-50
2023/05/05 00:20:59;;;;;;;5.72;5.13;;;20.40;50.40;;;;;;5009358;28;20042;-52
2023/05/05 00:23:27;;;;;;;6.65;5.10;;;20.40;50.40;;;;;;4990985;28;20050;-49
2023/05/05 00:25:54;;;;;;;8.68;5.53;;;20.40;50.40;;;;;;5008171;28;20042;-49
2023/05/05 00:28:21;;;;;;;5.65;4.82;;;20.50;50.50;;;;;;5009611;28;20046;-48
2023/05/05 00:30:50;;;;;;;5.50;5.00;;;20.50;50.50;;;;;;4996041;28;20517;-51
2023/05/05 00:33:22;;;;;;;5.68;5.15;;;20.50;50.50;;;;;;4974430;28;20545;-52
2023/05/05 00:35:50;;;;;;;5.82;5.20;;;20.60;50.70;;;;;;5004107;28;20057;-49
2023/05/05 00:38:16;;;;;;;5.43;4.88;;;20.60;50.30;;;;;;5006547;28;20080;-51
2023/05/05 00:40:46;;;;;;;5.57;5.10;;;20.60;50.70;;;;;;5005967;28;20495;-49
2023/05/05 00:43:15;;;;;;;7.55;4.88;;;20.70;50.70;;;;;;5008119;28;20553;-49
2023/05/05 00:45:46;;;;;;;5.03;4.55;;;20.60;50.40;;;;;;5009645;28;20472;-54
2023/05/05 00:48:15;;;;;;;4.75;4.45;;;20.60;50.70;;;;;;4992922;28;20061;-49
2023/05/05 00:50:43;;;;;;;5.05;4.43;;;20.60;50.70;;;;;;4988343;28;20050;-53
2023/05/05 00:53:13;;;;;;;6.47;4.68;;;20.60;50.80;;;;;;4982358;28;20084;-53
2023/05/05 00:55:40;;;;;;;5.93;5.03;;;20.50;50.90;;;;;;5001167;28;20129;-50
2023/05/05 00:58:08;;;;;;;6.28;5.22;;;20.50;51.00;;;;;;4992830;28;20111;-50
2023/05/05 01:00:39;;;;;;;5.68;5.18;;;20.40;51.10;;;;;;4992156;28;20053;-49
2023/05/05 01:03:15;;;;;;;5.80;5.30;;;20.40;51.30;;;;;;4991760;28;20042;-50
2023/05/05 01:05:56;;;;;;;5.25;4.75;;;20.30;51.50;;;;;;5002289;28;20125;-51
2023/05/05 01:08:37;;;;;;;6.28;5.13;;;20.20;51.80;;;;;;4993520;28;20129;-52
2023/05/05 01:11:25;;;;;;;6.80;4.78;;;20.20;52.20;;;;;;4991876;28;20052;-50
2023/05/05 01:14:13;;;;;;;6.32;5.53;;;20.10;52.50;;;;;;4989770;28;20050;-52
2023/05/05 01:16:52;;;;;;;7.00;5.63;;;20.00;52.40;;;;;;4999221;28;20034;-52
2023/05/05 01:19:37;;;;;;;5.78;5.28;;;20.00;52.50;;;;;;4989533;28;20050;-51
2023/05/05 01:22:10;;;;;;;6.18;5.57;;;19.90;52.00;;;;;;5006006;28;20046;-51
2023/05/05 01:24:56;;;;;;;;;;;19.90;52.40;;;;;;5006755;28;20499;-48
2023/05/05 01:27:44;;;;;;;6.55;5.38;;;19.90;51.40;;;;;;5007327;28;19925;-50
2023/05/05 01:30:38;;;;;;;8.23;5.28;;;19.80;52.40;;;;;;4976090;28;20042;-52
2023/05/05 01:33:12;;;;;;;6.78;5.55;;;19.70;52.60;;;;;;5010549;28;20046;-53
2023/05/05 01:35:45;;;;;;;5.47;4.97;;;19.70;52.20;;;;;;4999329;28;20049;-48
2023/05/05 01:38:20;;;;;;;7.82;6.50;;;19.60;52.50;;;;;;4985787;28;20038;-55
2023/05/05 01:41:16;;;;;;;7.68;5.65;;;19.50;52.60;;;;;;4985681;28;20137;-48
2023/05/05 01:43:47;;;;;;;6.75;6.00;;;19.50;53.40;;;;;;4992813;28;20141;-48
2023/05/05 01:46:17;;;;;;;6.72;6.10;;;19.50;53.00;;;;;;4989151;28;20057;-50
2023/05/05 01:48:47;;;;;;;7.63;6.78;;;19.50;53.20;;;;;;4991971;28;20042;-50
2023/05/05 01:51:16;;;;;;;7.40;6.72;;;19.40;53.40;;;;;;5001856;28;20069;-53
2023/05/05 01:53:51;;;;;;;11.38;7.55;;;19.40;53.50;;;;;;5009980;28;20050;-50
2023/05/05 01:56:22;;;;;;;10.18;7.95;;;19.50;53.60;;;;;;4982794;28;20054;-49
2023/05/05 01:58:50;;;;;;;9.93;8.35;;;19.40;54.00;;;;;;4976572;28;20034;-50
2023/05/05 02:01:23;;;;;;;10.02;9.02;;;19.40;54.10;;;;;;4990847;28;20133;-51
2023/05/05 02:03:55;;;;;;;9.55;7.93;;;19.40;54.50;;;;;;4990808;28;20073;-50
2023/05/05 02:06:23;;;;;;;;;;;19.40;54.70;;;;;;5000857;28;20498;-49
2023/05/05 02:08:53;;;;;;;16.27;8.45;;;19.50;53.40;;;;;;5008251;28;19922;-51
2023/05/05 02:11:20;;;;;;;9.13;8.07;;;19.40;53.40;;;;;;5008831;28;20052;-52
2023/05/05 02:13:48;;;;;;;7.82;7.07;;;19.40;53.90;;;;;;5006482;28;20042;-54
2023/05/05 02:16:17;;;;;;;9.73;7.78;;;19.40;54.00;;;;;;5004178;28;20042;-52
2023/05/05 02:18:48;;;;;;;8.90;8.00;;;19.40;54.30;;;;;;5003185;28;20066;-52
2023/05/05 02:21:19;;;;;;;8.45;7.75;;;19.30;54.20;;;;;;4991486;28;20525;-49
2023/05/05 02:23:50;;;;;;;9.05;8.15;;;19.30;54.20;;;;;;5002435;28;20414;-49
2023/05/05 02:26:23;;;;;;;8.77;7.93;;;19.30;54.20;;;;;;4989784;28;20046;-51
2023/05/05 02:28:55;;;;;;;8.95;8.05;;;19.30;54.50;;;;;;4991249;28;20042;-48
2023/05/05 02:31:28;;;;;;;8.05;7.35;;;19.20;54.30;;;;;;4988671;28;20054;-51
2023/05/05 02:33:56;;;;;;;8.70;7.90;;;19.10;54.20;;;;;;5010361;28;20572;-47
2023/05/05 02:36:30;;;;;;;8.40;7.60;;;19.10;54.40;;;;;;4993810;28;20046;-49
2023/05/05 02:39:21;;;;;;;8.45;7.65;;;19.10;54.90;;;;;;4986404;28;20052;-51
2023/05/05 02:41:50;;;;;;;8.23;7.18;;;19.00;55.10;;;;;;4976104;28;20573;-52
2023/05/05 02:44:27;;;;;;;10.23;7.88;;;18.90;54.60;;;;;;4992804;28;20076;-51
2023/05/05 02:46:54;;;;;;;7.97;7.20;;;18.90;54.50;;;;;;4990721;28;20080;-52
2023/05/05 02:49:22;;;;;;;9.15;8.25;;;18.80;54.60;;;;;;4986992;28;20053;-50
2023/05/05 02:51:56;;;;;;;9.40;7.97;;;18.70;55.10;;;;;;4986949;28;20063;-50
2023/05/05 02:54:27;;;;;;;9.25;7.75;;;18.60;54.30;;;;;;4994661;28;20065;-49
2023/05/05 02:57:03;;;;;;;9.43;7.90;;;18.60;54.20;;;;;;4986741;28;20099;-48
2023/05/05 02:59:48;;;;;;;9.20;8.27;;;18.50;54.30;;;;;;4984653;28;20104;-47
2023/05/05 03:02:27;;;;;;;8.32;7.63;;;18.40;54.70;;;;;;4984073;28;20629;-47
2023/05/05 03:05:02;;;;;;;8.95;8.13;;;18.30;54.60;;;;;;4988583;28;20550;-50
2023/05/05 03:07:44;;;;;;;9.23;7.38;;;18.20;54.30;;;;;;4983420;28;20041;-49
2023/05/05 03:10:15;;;;;;;8.85;7.78;;;18.10;54.30;;;;;;5009669;28;20141;-48
2023/05/05 03:12:52;;;;;;;9.20;8.23;;;18.00;54.40;;;;;;4990381;28;20078;-47
2023/05/05 03:15:34;;;;;;;9.40;8.45;;;17.90;54.30;;;;;;4992832;28;20042;-49
2023/05/05 03:18:05;;;;;;;8.70;7.80;;;17.80;54.40;;;;;;4988658;28;20410;-47
2023/05/05 03:20:40;;;;;;;10.57;7.82;;;17.70;54.40;;;;;;4984029;28;20066;-50
2023/05/05 03:23:13;;;;;;;8.65;7.43;;;17.60;54.60;;;;;;4990861;28;20046;-52
2023/05/05 03:25:48;;;;;;;9.25;8.35;;;17.50;54.40;;;;;;4987374;28;20068;-50
2023/05/05 03:28:29;;;;;;;8.68;7.78;;;17.50;54.80;;;;;;4988074;28;20050;-48
2023/05/05 03:31:01;;;;;;;9.32;8.32;;;17.40;54.90;;;;;;4986885;28;20053;-48
2023/05/05 03:33:29;;;;;;;9.57;8.35;;;17.30;55.30;;;;;;4990122;28;20050;-48
2023/05/05 03:35:58;;;;;;;8.90;8.00;;;17.30;55.40;;;;;;4993468;28;20132;-52
2023/05/05 03:38:27;;;;;;;8.93;8.13;;;17.20;55.40;;;;;;5008822;28;20521;-49
2023/05/05 03:41:02;;;;;;;9.48;8.57;;;17.10;55.40;;;;;;4984491;28;20042;-51
2023/05/05 03:43:30;;;;;;;9.20;8.30;;;17.10;56.00;;;;;;4989693;28;20046;-48
2023/05/05 03:46:01;;;;;;;8.93;8.00;;;17.00;55.90;;;;;;4991199;28;20050;-48
2023/05/05 03:48:28;;;;;;;9.80;8.45;;;17.00;56.20;;;;;;4993898;28;20415;-49
2023/05/05 03:50:55;;;;;;;9.55;8.65;;;16.90;55.90;;;;;;4983154;28;20045;-52
2023/05/05 03:53:26;;;;;;;8.88;7.70;;;16.90;55.80;;;;;;4987398;28;20128;-51
2023/05/05 03:55:56;;;;;;;9.07;8.05;;;16.90;55.80;;;;;;4993234;28;20050;-50
2023/05/05 03:58:22;;;;;;;11.45;9.00;;;16.80;55.80;;;;;;4996701;28;20042;-49
2023/05/05 04:00:51;;;;;;;9.15;8.05;;;16.80;55.80;;;;;;4993211;28;20040;-49
2023/05/05 04:03:23;;;;;;;9.20;8.32;;;16.70;55.60;;;;;;4991365;28;20514;-52
2023/05/05 04:05:50;;;;;;;9.75;8.50;;;16.70;55.90;;;;;;4985593;28;20038;-51
2023/05/05 04:08:19;;;;;;;9.40;8.45;;;16.60;55.80;;;;;;4994275;28;20057;-52
2023/05/05 04:10:50;;;;;;;9.95;8.95;;;16.60;56.00;;;;;;4990295;28;20100;-48
2023/05/05 04:13:19;;;;;;;9.70;8.70;;;16.60;56.10;;;;;;4994731;28;20451;-51
2023/05/05 04:15:47;;;;;;;10.23;9.20;;;16.50;56.00;;;;;;4988104;28;20514;-48
2023/05/05 04:18:15;;;;;;;10.00;8.88;;;16.50;56.20;;;;;;4992767;28;20068;-49
2023/05/05 04:20:44;;;;;;;10.35;9.27;;;16.40;56.30;;;;;;5010946;28;20038;-51
2023/05/05 04:23:11;;;;;;;9.88;8.93;;;16.40;56.70;;;;;;4991871;28;20056;-47
2023/05/05 04:25:38;;;;;;;9.90;8.95;;;16.40;56.60;;;;;;5006431;28;20046;-50
2023/05/05 04:28:05;;;;;;;12.30;10.95;;;16.30;57.20;;;;;;4992024;28;20042;-49
2023/05/05 04:30:34;;;;;;;11.27;10.23;;;16.30;58.50;;;;;;5004599;28;20406;-49
2023/05/05 04:33:06;;;;;;;10.48;9.07;;;16.30;58.70;;;;;;4992255;28;20076;-46
2023/05/05 04:35:33;;;;;;;11.73;9.80;;;16.30;58.60;;;;;;5006420;28;20092;-50
2023/05/05 04:38:02;;;;;;;10.73;9.73;;;16.40;58.70;;;;;;4990063;28;20124;-51
2023/05/05 04:40:29;;;;;;;13.43;10.77;;;16.40;58.70;;;;;;4986014;28;20041;-48
2023/05/05 04:42:57;;;;;;;12.57;10.80;;;16.40;59.60;;;;;;4990404;28;20047;-52
2023/05/05 04:45:24;;;;;;;11.82;10.48;;;16.40;60.10;;;;;;4992209;28;20502;-50
2023/05/05 04:47:51;;;;;;;11.65;9.55;;;16.50;60.00;;;;;;4991225;28;20050;-50
2023/05/05 04:50:23;;;;;;;11.20;10.05;;;16.50;59.80;;;;;;4991300;28;20045;-50
2023/05/05 04:52:52;;;;;;;9.85;8.65;;;16.60;59.80;;;;;;4986473;28;20092;-50
2023/05/05 04:55:22;;;;;;;10.85;9.73;;;16.60;59.30;;;;;;4987547;28;20044;-46
2023/05/05 04:57:58;;;;;;;9.82;8.55;;;16.70;59.20;;;;;;5002185;28;20042;-48
2023/05/05 05:00:31;;;;;;;9.45;8.35;;;16.70;59.20;;;;;;4976014;28;20050;-48
2023/05/05 05:03:00;;;;;;;9.80;8.80;;;16.70;59.10;;;;;;4986339;28;20500;-49
2023/05/05 05:05:27;;;;;;;9.52;8.60;;;16.80;59.20;;;;;;4988837;28;20050;-50
2023/05/05 05:07:56;;;;;;;9.88;8.88;;;16.80;59.40;;;;;;4981577;28;20096;-49
2023/05/05 05:10:25;;;;;;;10.68;9.60;;;16.80;59.50;;;;;;4973398;28;20051;-49
2023/05/05 05:12:54;;;;;;;9.40;8.52;;;16.80;60.30;;;;;;4985925;28;20574;-52
2023/05/05 05:15:21;;;;;;;11.55;9.35;;;16.90;59.80;;;;;;5009589;28;20034;-51
2023/05/05 05:17:50;;;;;;;10.88;9.45;;;16.90;59.90;;;;;;4988480;28;20525;-50
2023/05/05 05:20:18;;;;;;;10.00;8.93;;;16.90;60.20;;;;;;4978345;28;20431;-49
2023/05/05 05:22:46;;;;;;;9.60;8.55;;;16.90;60.40;;;;;;4990574;28;20041;-49
2023/05/05 05:25:18;;;;;;;11.90;10.35;;;17.00;60.60;;;;;;4977906;28;20140;-48
2023/05/05 05:27:46;;;;;;;12.85;11.48;;;17.10;60.90;;;;;;4993133;28;20057;-49
2023/05/05 05:30:35;;;;;;;13.32;11.73;;;17.10;61.20;;;;;;4974836;28;20042;-48
2023/05/05 05:33:08;;;;;;;13.60;12.00;;;17.20;61.40;;;;;;4992428;28;20458;-50
2023/05/05 05:35:35;;;;;;;13.18;11.77;;;17.30;61.60;;;;;;4987489;28;20052;-48
2023/05/05 05:38:09;;;;;;;14.63;13.13;;;17.30;61.60;;;;;;4986640;28;20526;-51
2023/05/05 05:40:42;;;;;;;13.38;11.95;;;17.40;62.30;;;;;;5006542;28;20152;-49
2023/05/05 05:43:14;;;;;;;15.20;12.48;;;17.50;61.60;;;;;;4985580;28;20104;-51
2023/05/05 05:45:41;;;;;;;;;;;17.60;61.70;;;;;;5008804;28;20444;-50
2023/05/05 05:48:07;;;;;;;11.52;10.35;;;17.80;61.40;;;;;;5008442;28;20324;-49
2023/05/05 05:50:34;;;;;;;14.07;12.52;;;17.80;61.00;;;;;;4992773;28;20121;-54
2023/05/05 05:53:13;;;;;;;15.23;13.15;;;17.90;61.10;;;;;;4986549;28;20514;-48
2023/05/05 05:55:42;;;;;;;16.98;12.82;;;18.00;60.90;;;;;;5008375;28;20092;-49
2023/05/05 05:58:15;;;;;;;12.88;11.48;;;18.10;61.00;;;;;;4986118;28;20057;-51
2023/05/05 06:00:46;;;;;;;14.60;12.02;;;18.20;61.50;;;;;;4980434;28;20046;-52
2023/05/05 06:03:15;;;;;;;12.32;11.02;;;18.20;61.20;;;;;;4994685;28;20095;-49
2023/05/05 06:05:44;;;;;;;14.40;11.52;;;18.30;60.90;;;;;;5006799;28;20088;-52
2023/05/05 06:08:12;;;;;;;13.77;11.93;;;18.40;61.00;;;;;;4988038;28;20050;-53
2023/05/05 06:10:47;;;;;;;14.52;12.20;;;18.50;60.90;;;;;;4986900;28;20081;-50
2023/05/05 06:13:17;;;;;;;13.23;11.35;;;18.60;60.90;;;;;;4978969;28;20097;-52
2023/05/05 06:15:47;;;;;;;14.13;12.13;;;18.60;60.70;;;;;;4995000;28;20038;-50
2023/05/05 06:18:18;;;;;;;13.60;11.40;;;18.70;60.70;;;;;;4984989;28;20112;-51
2023/05/05 06:20:55;;;;;;;12.45;11.15;;;18.80;60.50;;;;;;5002919;28;20046;-53
2023/05/05 06:23:27;;;;;;;15.80;11.07;;;18.80;60.60;;;;;;4987248;28;20038;-50
2023/05/05 06:25:59;;;;;;;12.73;11.52;;;18.90;60.40;;;;;;4982293;28;20050;-49
2023/05/05 06:28:26;;;;;;;11.45;10.32;;;19.00;60.60;;;;;;5008110;28;20054;-52
2023/05/05 06:30:56;;;;;;;12.65;10.32;;;19.00;60.30;;;;;;4999195;28;20041;-51
2023/05/05 06:33:27;;;;;;;11.63;10.50;;;19.00;60.00;;;;;;4999758;28;20060;-49
2023/05/05 06:36:15;;;;;;;;;;;19.10;59.80;;;;;;4999898;28;20162;-49
2023/05/05 06:38:41;;;;;;;11.57;8.50;;;19.20;59.40;;;;;;4990711;28;20012;-54
2023/05/05 06:41:11;;;;;;;10.00;8.90;;;19.20;59.00;;;;;;4995089;28;20041;-54
2023/05/05 06:43:38;;;;;;;9.52;8.52;;;19.30;59.20;;;;;;5001073;28;20052;-54
2023/05/05 06:46:10;;;;;;;9.38;8.18;;;19.30;58.90;;;;;;4984106;28;20046;-54
2023/05/05 06:48:37;;;;;;;8.57;7.18;;;19.30;58.80;;;;;;5006666;28;20052;-54
2023/05/05 06:51:03;;;;;;;9.27;8.35;;;19.40;58.90;;;;;;5004365;28;20129;-49
2023/05/05 06:53:30;;;;;;;9.77;8.45;;;19.40;58.90;;;;;;5002684;28;20827;-54
2023/05/05 06:55:57;;;;;;;9.02;8.20;;;19.40;58.70;;;;;;5002902;28;20038;-52
2023/05/05 06:58:24;;;;;;;9.98;8.35;;;19.40;58.60;;;;;;5002844;28;20521;-53
2023/05/05 07:00:50;;;;;;;10.43;9.07;;;19.40;58.80;;;;;;5001349;28;20072;-52
2023/05/05 07:03:17;;;;;;;9.82;7.93;;;19.50;58.80;;;;;;5003223;28;20476;-51
2023/05/05 07:05:44;;;;;;;10.48;9.40;;;19.50;59.20;;;;;;5007870;28;20117;-52
2023/05/05 07:08:10;;;;;;;11.43;8.98;;;19.60;59.00;;;;;;5001461;28;20038;-53
2023/05/05 07:10:37;;;;;;;10.60;8.85;;;19.60;58.80;;;;;;4980590;28;20276;-52
2023/05/05 07:13:08;;;;;;;10.30;9.18;;;19.70;58.50;;;;;;5007168;28;20050;-54
2023/05/05 07:15:35;;;;;;;11.93;9.00;;;19.70;58.70;;;;;;5004016;28;20044;-54
2023/05/05 07:18:02;;;;;;;10.73;8.88;;;19.80;58.60;;;;;;5007600;28;20069;-54
2023/05/05 07:20:29;;;;;;;10.65;9.30;;;19.80;58.70;;;;;;4993358;28;20050;-52
2023/05/05 07:22:55;;;;;;;11.35;9.27;;;19.90;58.90;;;;;;4991281;28;20427;-54
2023/05/05 07:25:22;;;;;;;9.70;7.63;;;19.90;58.60;;;;;;5008501;28;20057;-50
2023/05/05 07:27:49;;;;;;;10.85;8.75;;;20.00;58.50;;;;;;5002161;28;20406;-51
2023/05/05 07:30:15;;;;;;;9.27;7.97;;;20.10;58.50;;;;;;5009515;28;20056;-54
2023/05/05 07:32:45;;;;;;;9.80;7.88;;;20.20;58.10;;;;;;4993243;28;20054;-54
2023/05/05 07:35:12;;;;;;;11.25;8.70;;;20.30;57.80;;;;;;5008658;28;20125;-54
2023/05/05 07:37:38;;;;;;;12.50;9.23;;;20.40;57.70;;;;;;5002628;28;20049;-53
2023/05/05 07:40:06;;;;;;;11.02;9.32;;;20.50;57.60;;;;;;5004523;28;20048;-53
2023/05/05 07:42:33;;;;;;;13.98;9.77;;;20.50;57.40;;;;;;5010911;28;20096;-54
2023/05/05 07:45:02;;;;;;;11.55;9.77;;;20.60;57.30;;;;;;5001638;28;20795;-53
2023/05/05 07:47:29;;;;;;;10.35;9.25;;;20.70;57.60;;;;;;5006737;28;20049;-54
2023/05/05 07:49:56;;;;;;;11.05;9.55;;;20.70;57.40;;;;;;5000463;28;20125;-50
2023/05/05 07:52:23;;;;;;;13.93;11.32;;;20.70;56.90;;;;;;5000819;28;20411;-44
2023/05/05 07:55:10;;;;;;;12.95;10.52;;;20.80;57.10;;;;;;4997238;28;20042;-49
2023/05/05 07:57:37;;;;;;;11.77;10.57;;;20.70;57.00;;;;;;5005477;28;20038;-45
2023/05/05 08:00:06;;;;;;;12.60;11.30;;;20.80;56.90;;;;;;4995320;28;20033;-46
2023/05/05 08:02:39;;;;;;;12.15;10.30;;;20.80;56.90;;;;;;5003009;28;20055;-47
2023/05/05 08:05:07;;;;;;;12.13;10.00;;;20.80;57.10;;;;;;5007430;28;20057;-47
2023/05/05 08:07:35;;;;;;;12.55;10.45;;;20.80;57.20;;;;;;4992648;28;20042;-46
2023/05/05 08:10:02;;;;;;;11.52;9.23;;;20.80;57.10;;;;;;4994646;28;20042;-46
2023/05/05 08:12:28;;;;;;;11.95;8.45;;;20.90;56.80;;;;;;5007166;28;20494;-49
2023/05/05 08:14:55;;;;;;;9.73;8.40;;;20.90;57.10;;;;;;5007515;28;20375;-46
2023/05/05 08:17:24;;;;;;;11.25;9.23;;;20.90;56.60;;;;;;5011160;28;20049;-45
2023/05/05 08:19:51;;;;;;;10.48;9.27;;;21.00;56.40;;;;;;5001288;28;20542;-45
2023/05/05 08:22:19;;;;;;;10.23;8.38;;;20.90;56.20;;;;;;4991182;28;20184;-46
2023/05/05 08:24:46;;;;;;;8.85;7.63;;;21.00;56.10;;;;;;4998341;28;20045;-45
2023/05/05 08:27:13;;;;;;;9.18;8.30;;;21.00;56.00;;;;;;5011417;28;20582;-45
2023/05/05 08:29:40;;;;;;;9.70;8.60;;;21.10;55.90;;;;;;4994055;28;20050;-49
2023/05/05 08:32:06;;;;;;;12.05;8.48;;;21.10;55.80;;;;;;4991601;28;20046;-46
2023/05/05 08:34:33;;;;;;;11.70;8.50;;;21.20;55.50;;;;;;5009886;28;20042;-46
2023/05/05 08:36:59;;;;;;;10.95;8.77;;;21.30;56.10;;;;;;5010778;28;20084;-46
2023/05/05 08:39:26;;;;;;;9.82;8.82;;;21.40;55.80;;;;;;5002071;28;20041;-47
2023/05/05 08:41:53;;;;;;;9.50;7.75;;;21.50;55.90;;;;;;5004606;28;20045;-45
2023/05/05 08:44:20;;;;;;;10.27;8.43;;;21.60;55.80;;;;;;5004771;28;20085;-45
2023/05/05 08:46:48;;;;;;;8.18;7.32;;;21.70;55.30;;;;;;5009000;28;20577;-45
2023/05/05 08:49:17;;;;;;;9.68;7.32;;;21.90;55.40;;;;;;5005163;28;20042;-47
2023/05/05 08:51:45;;;;;;;7.85;6.93;;;22.00;54.80;;;;;;5005717;28;20049;-48
2023/05/05 08:54:17;;;;;;;6.68;6.07;;;22.20;54.80;;;;;;5007645;28;20041;-45
2023/05/05 08:56:48;;;;;;;6.38;5.78;;;22.30;54.10;;;;;;5004123;28;20049;-45
2023/05/05 08:59:16;;;;;;;5.90;5.23;;;22.40;53.80;;;;;;5006831;28;20133;-48
2023/05/05 09:01:46;;;;;;;6.65;4.90;;;22.50;53.10;;;;;;5002550;28;20042;-45
2023/05/05 09:04:13;;;;;;;8.27;5.55;;;22.60;52.80;;;;;;5008249;28;20034;-45
2023/05/05 09:06:40;;;;;;;5.55;5.05;;;22.70;53.20;;;;;;5009606;28;20580;-47
2023/05/05 09:09:07;;;;;;;5.38;4.88;;;22.80;52.90;;;;;;5007142;28;20053;-45
2023/05/05 09:11:35;;;;;;;5.68;5.10;;;22.90;52.80;;;;;;5007309;28;20049;-46
2023/05/05 09:14:01;;;;;;;5.97;4.70;;;23.00;52.70;;;;;;5002542;28;20050;-46
2023/05/05 09:16:28;;;;;;;5.75;4.95;;;23.20;52.00;;;;;;5008422;28;20509;-47
2023/05/05 09:19:04;;;;;;;19.42;5.97;;;23.20;51.30;;;;;;5009087;28;20038;-46
2023/05/05 09:21:31;;;;;;;5.03;4.53;;;23.40;50.70;;;;;;5006155;28;20046;-45
2023/05/05 09:24:08;;;;;;;4.82;4.35;;;23.50;51.00;;;;;;5008317;28;20042;-46
2023/05/05 09:26:37;;;;;;;4.53;3.50;;;23.60;50.50;;;;;;5009053;28;20034;-45
2023/05/05 09:29:05;;;;;;;3.50;3.20;;;23.60;49.70;;;;;;5000893;28;20034;-49
2023/05/05 09:31:33;;;;;;;4.63;2.50;;;23.70;49.20;;;;;;4997465;28;20045;-46
2023/05/05 09:34:02;;;;;;;2.70;2.50;;;23.70;48.40;;;;;;5007525;28;20073;-47
2023/05/05 09:36:47;;;;;;;3.25;2.20;;;23.80;48.90;;;;;;5008385;28;20050;-50
2023/05/05 09:39:18;;;;;;;1.85;1.30;;;23.80;47.60;;;;;;5008601;28;20033;-44
2023/05/05 09:41:47;;;;;;;2.83;1.80;;;23.80;46.70;;;;;;5005073;28;20530;-47
2023/05/05 09:44:15;;;;;;;1.67;1.50;;;23.90;47.20;;;;;;5005037;28;20040;-47
2023/05/05 09:46:54;;;;;;;1.90;1.80;;;23.80;47.30;;;;;;5008385;28;20387;-50
2023/05/05 09:49:25;;;;;;;1.73;1.60;;;23.90;47.90;;;;;;5002631;28;20471;-47
2023/05/05 09:51:53;;;;;;;2.07;1.57;;;23.90;47.30;;;;;;5007984;28;20045;-50
2023/05/05 09:54:31;;;;;;;1.75;1.65;;;24.00;47.60;;;;;;5006691;28;20045;-47
2023/05/05 09:56:58;;;;;;;2.65;2.00;;;24.10;47.70;;;;;;5009987;28;20121;-50
2023/05/05 09:59:27;;;;;;;3.00;2.00;;;24.10;47.90;;;;;;5007279;28;20160;-46
2023/05/05 10:02:10;;;;;;;2.53;2.28;;;24.10;46.90;;;;;;5007144;28;20053;-47
2023/05/05 10:04:42;;;;;;;3.88;2.22;;;24.20;47.60;;;;;;5007776;28;20120;-48
2023/05/05 10:07:25;;;;;;;1.60;1.50;;;24.10;47.70;;;;;;4989598;28;20042;-48
2023/05/05 10:09:52;;;;;;;1.60;1.50;;;24.20;47.30;;;;;;5007687;28;20034;-45
2023/05/05 10:12:19;;;;;;;1.70;1.25;;;24.10;47.00;;;;;;4999860;28;20065;-46
2023/05/05 10:14:45;;;;;;;1.42;1.30;;;24.10;46.70;;;;;;5009633;28;20038;-48
2023/05/05 10:17:14;;;;;;;3.30;1.77;;;24.10;46.50;;;;;;5006216;28;20034;-48
2023/05/05 10:19:41;;;;;;;2.00;1.30;;;24.00;47.00;;;;;;4995472;28;20046;-50
2023/05/05 10:22:09;;;;;;;3.65;1.45;;;24.00;46.80;;;;;;4991046;28;20093;-48
2023/05/05 10:24:48;;;;;;;2.95;1.45;;;24.00;46.70;;;;;;5008289;28;20041;-50
2023/05/05 10:27:18;;;;;;;1.92;1.50;;;24.00;46.50;;;;;;4988917;28;20641;-49
2023/05/05 10:30:03;;;;;;;3.03;1.88;;;24.00;47.00;;;;;;5000202;28;20042;-47
2023/05/05 10:32:43;;;;;;;2.17;1.90;;;24.00;46.70;;;;;;4999975;28;20417;-48
2023/05/05 10:35:19;;;;;;;4.10;1.40;;;23.90;46.70;;;;;;5005308;28;20054;-49
2023/05/05 10:37:46;;;;;;;2.55;1.73;;;24.00;47.10;;;;;;5008329;28;20045;-47
2023/05/05 10:40:15;;;;;;;2.67;2.03;;;24.00;47.20;;;;;;5006435;28;20093;-47
2023/05/05 10:42:42;;;;;;;4.05;1.70;;;24.00;47.00;;;;;;5006835;28;20418;-49
2023/05/05 10:45:12;;;;;;;3.85;2.20;;;23.90;47.00;;;;;;5005953;28;20110;-45
2023/05/05 10:47:39;;;;;;;2.85;2.22;;;23.90;47.00;;;;;;5005149;28;20045;-48
2023/05/05 10:50:36;;;;;;;2.65;2.45;;;23.90;47.50;;;;;;5000198;28;20065;-44
2023/05/05 10:53:31;;;;;;;3.50;3.00;;;23.90;47.60;;;;;;5000088;28;20514;-49
2023/05/05 10:56:10;;;;;;;3.28;2.97;;;23.80;47.90;;;;;;5008669;28;20061;-47
2023/05/05 10:58:38;;;;;;;2.70;2.50;;;23.80;48.80;;;;;;5006940;28;20085;-47
2023/05/05 11:01:32;;;;;;;3.25;2.22;;;23.80;48.10;;;;;;5005622;28;20038;-45
2023/05/05 11:04:21;;;;;;;2.33;1.98;;;23.70;47.80;;;;;;5009085;28;20111;-46
2023/05/05 11:07:07;;;;;;;1.00;0.98;;;23.60;47.40;;;;;;5011724;28;20045;-44
2023/05/05 11:09:53;;;;;;;4.60;1.17;;;23.50;47.20;;;;;;5008697;28;20073;-45
2023/05/05 11:12:20;;;;;;;2.28;1.02;;;23.40;48.10;;;;;;5009909;28;20049;-46
2023/05/05 11:15:07;;;;;;;2.67;2.05;;;23.20;48.30;;;;;;5011806;28;20512;-45
2023/05/05 11:17:47;;;;;;;0.52;0.52;;;23.10;47.90;;;;;;5007968;28;20080;-48
2023/05/05 11:20:14;;;;;;;1.05;0.95;;;23.00;47.90;;;;;;5008489;28;20047;-46
2023/05/05 11:23:07;;;;;;;1.25;1.13;;;23.00;48.60;;;;;;5010030;28;20048;-46
2023/05/05 11:25:34;;;;;;;1.55;1.05;;;22.90;49.50;;;;;;4986462;28;20057;-46
2023/05/05 11:28:09;;;;;;;2.90;1.77;;;22.90;50.00;;;;;;5008824;28;20600;-47
2023/05/05 11:30:55;;;;;;;1.83;1.33;;;22.90;51.00;;;;;;5009537;28;20065;-45
2023/05/05 11:33:28;;;;;;;2.60;1.20;;;22.90;50.70;;;;;;4989493;28;20046;-45
2023/05/05 11:36:03;;;;;;;1.60;1.05;;;22.90;50.80;;;;;;5010116;28;20049;-47
2023/05/05 11:38:38;;;;;;;2.25;1.25;;;23.00;50.80;;;;;;5009304;28;20049;-46
2023/05/05 11:41:10;;;;;;;;;;;23.00;51.40;;;;;;5006701;28;20041;-47
2023/05/05 11:43:40;;;;;;;1.42;1.17;;;23.10;50.70;;;;;;4998573;28;20446;-50
2023/05/05 11:46:14;;;;;;;2.20;1.33;;;23.20;50.00;;;;;;5008510;28;20049;-46
2023/05/05 11:48:49;;;;;;;1.73;1.17;;;23.40;50.30;;;;;;5009678;28;20046;-47
2023/05/05 11:51:17;;;;;;;3.08;1.40;;;23.40;50.10;;;;;;4999103;28;20074;-50
2023/05/05 11:53:47;;;;;;;2.55;1.20;;;23.50;50.30;;;;;;5004515;28;20049;-50
2023/05/05 11:56:17;;;;;;;1.58;1.27;;;23.60;50.20;;;;;;5011277;28;20041;-47
2023/05/05 11:58:45;;;;;;;1.70;1.05;;;23.70;50.70;;;;;;5009541;28;20117;-49
2023/05/05 12:01:12;;;;;;;1.73;1.27;;;23.80;50.10;;;;;;5010183;28;20050;-48
2023/05/05 12:03:39;;;;;;;1.42;1.10;;;24.00;49.50;;;;;;4986597;28;20052;-48
2023/05/05 12:06:07;;;;;;;1.05;0.95;;;24.10;48.80;;;;;;5011562;28;20532;-46
2023/05/05 12:08:35;;;;;;;1.98;1.20;;;24.20;48.10;;;;;;5004115;28;20560;-46
2023/05/05 12:11:09;;;;;;;1.15;1.00;;;24.30;47.80;;;;;;5008993;28;20080;-48
2023/05/05 12:13:36;;;;;;;1.27;1.17;;;24.40;46.60;;;;;;4989730;28;20225;-47
2023/05/05 12:16:13;;;;;;;2.00;1.70;;;24.50;47.00;;;;;;5009009;28;20057;-45
2023/05/05 12:18:40;;;;;;;4.75;1.95;;;24.60;46.40;;;;;;5009714;28;20037;-47
2023/05/05 12:21:17;;;;;;;3.15;2.15;;;24.60;46.70;;;;;;5000989;28;20042;-47
2023/05/05 12:23:44;;;;;;;3.33;1.98;;;24.70;47.30;;;;;;5005088;28;20038;-46
2023/05/05 12:26:24;;;;;;;3.58;2.05;;;24.70;47.20;;;;;;5013092;28;20049;-46
2023/05/05 12:28:51;;;;;;;2.20;1.95;;;24.70;46.50;;;;;;5007068;28;20054;-47
2023/05/05 12:31:18;;;;;;;2.67;2.35;;;24.70;46.40;;;;;;5002340;28;20109;-46
2023/05/05 12:33:45;;;;;;;3.67;2.10;;;24.70;46.40;;;;;;4995963;28;20053;-46
2023/05/05 12:36:12;;;;;;;3.17;2.47;;;24.80;46.80;;;;;;5009780;28;20049;-44
2023/05/05 12:38:40;;;;;;;2.92;2.30;;;24.80;46.50;;;;;;5006748;28;20104;-49
2023/05/05 12:41:07;;;;;;;1.73;1.55;;;24.80;46.90;;;;;;5005250;28;20048;-47
2023/05/05 12:43:34;;;;;;;2.97;1.85;;;24.90;46.80;;;;;;5010267;28;20038;-46
2023/05/05 12:46:03;;;;;;;2.50;1.52;;;25.00;46.70;;;;;;4987129;28;20046;-46
2023/05/05 12:48:30;;;;;;;2.22;1.55;;;25.10;46.40;;;;;;4999406;28;20046;-45
2023/05/05 12:51:19;;;;;;;2.05;1.52;;;25.20;46.30;;;;;;5005990;28;20053;-47
2023/05/05 12:53:47;;;;;;;2.60;1.42;;;25.30;45.90;;;;;;5009367;28;20526;-49
2023/05/05 12:56:34;;;;;;;2.58;1.63;;;25.40;46.60;;;;;;5010276;28;20074;-49
2023/05/05 12:59:09;;;;;;;3.17;1.42;;;25.50;46.00;;;;;;5001095;28;20054;-47
2023/05/05 13:01:51;;;;;;;3.55;1.55;;;25.60;45.40;;;;;;5003185;28;20048;-50
2023/05/05 13:04:18;;;;;;;;;;;25.70;44.20;;;;;;5005084;28;20121;-46